Time;durP1;ratioP1;P1;durP2;ratioP2;P2;SDS_P1;SDS_P2;PMS_P1;PMS_P2;Temp;Humidity;BMP_temperature;BMP_pressure;BME280_temperature;BME280_humidity;BME280_pressure;Samples;Min_cycle;Max_cycle;Signal;HPM_P1;HPM_P2
2022/05/29 00:00:45;;;;;;;1999.90;999.90;;;10.80;99.90;;;;;;5069098;28;20485;-70
2022/05/29 00:03:13;;;;;;;1999.90;999.90;;;10.70;99.90;;;;;;5067189;28;20815;-70
2022/05/29 00:05:41;;;;;;;1999.90;999.90;;;10.70;99.90;;;;;;5067627;28;21018;-70
2022/05/29 00:08:13;;;;;;;1999.90;999.90;;;10.60;99.90;;;;;;5071418;28;20941;-69
2022/05/29 00:10:42;;;;;;;1999.90;999.90;;;10.50;99.90;;;;;;5069351;28;20519;-70
2022/05/29 00:13:12;;;;;;;1999.90;999.90;;;10.40;99.90;;;;;;5068131;28;20514;-70
2022/05/29 00:15:39;;;;;;;1999.90;999.90;;;10.30;99.90;;;;;;5068156;28;20526;-70
2022/05/29 00:18:06;;;;;;;1999.90;999.90;;;10.10;99.90;;;;;;5069078;28;20461;-70
2022/05/29 00:20:33;;;;;;;1999.90;999.90;;;10.10;99.90;;;;;;5066112;28;20489;-70
2022/05/29 00:23:00;;;;;;;1999.90;999.90;;;10.10;99.90;;;;;;5067748;28;20558;-70
2022/05/29 00:25:26;;;;;;;1999.90;999.90;;;10.00;99.90;;;;;;5068893;28;20469;-70
2022/05/29 00:27:53;;;;;;;1999.90;999.90;;;10.00;99.90;;;;;;5067783;28;20949;-69
2022/05/29 00:30:21;;;;;;;1999.90;999.90;;;10.00;99.90;;;;;;5069135;28;20488;-70
2022/05/29 00:32:47;;;;;;;1999.90;999.90;;;10.10;99.90;;;;;;5067854;28;20462;-70
2022/05/29 00:35:14;;;;;;;1999.90;999.90;;;10.10;99.90;;;;;;5069715;28;20517;-69
2022/05/29 00:37:42;;;;;;;1999.90;999.90;;;10.10;99.90;;;;;;5067875;28;20465;-69
2022/05/29 00:40:18;;;;;;;1999.90;999.90;;;10.10;99.90;;;;;;5067302;28;20866;-69
2022/05/29 00:42:45;;;;;;;1999.90;999.90;;;10.10;99.90;;;;;;5067346;28;21012;-70
2022/05/29 00:45:19;;;;;;;1999.90;999.90;;;10.10;99.90;;;;;;5068695;28;20469;-70
2022/05/29 00:47:46;;;;;;;1999.90;999.90;;;10.20;99.90;;;;;;5063953;28;20969;-70
2022/05/29 00:50:13;;;;;;;1999.90;999.90;;;10.10;99.90;;;;;;5069590;28;20550;-70
2022/05/29 00:52:40;;;;;;;1999.90;999.90;;;10.10;99.90;;;;;;5068171;28;20507;-69
2022/05/29 00:55:12;;;;;;;1999.90;999.90;;;10.10;99.90;;;;;;5067431;28;21004;-70
2022/05/29 00:57:44;;;;;;;1999.90;999.90;;;10.20;99.90;;;;;;5064733;28;20463;-68
2022/05/29 01:00:15;;;;;;;1999.90;999.90;;;10.20;99.90;;;;;;5067406;28;21004;-69
2022/05/29 01:02:42;;;;;;;1999.90;999.90;;;10.10;99.90;;;;;;5066817;28;20481;-69
2022/05/29 01:05:12;;;;;;;1999.90;999.90;;;10.10;99.90;;;;;;5068317;28;20504;-70
2022/05/29 01:07:39;;;;;;;1999.90;999.90;;;10.00;99.90;;;;;;5068428;28;20874;-70
2022/05/29 01:10:08;;;;;;;1999.90;999.90;;;10.10;99.90;;;;;;5067968;28;20477;-70
2022/05/29 01:12:53;;;;;;;1999.90;999.90;;;10.10;99.90;;;;;;5067341;28;21339;-70
2022/05/29 01:15:30;;;;;;;1999.90;999.90;;;10.10;99.90;;;;;;5065827;28;20527;-70
2022/05/29 01:18:15;;;;;;;1999.90;999.90;;;10.10;99.90;;;;;;5067037;28;20515;-70
2022/05/29 01:21:02;;;;;;;1999.90;999.90;;;10.10;99.90;;;;;;5069349;28;20534;-69
2022/05/29 01:23:58;;;;;;;1999.90;999.90;;;9.90;99.90;;;;;;5065621;28;20462;-69
2022/05/29 01:27:06;;;;;;;1999.90;999.90;;;10.00;99.90;;;;;;5066768;28;20961;-68
2022/05/29 01:29:42;;;;;;;1999.90;999.90;;;10.10;99.90;;;;;;5063509;28;21146;-70
2022/05/29 01:32:14;;;;;;;1999.90;999.90;;;10.10;99.90;;;;;;5067512;28;20453;-70
2022/05/29 01:34:46;;;;;;;1999.90;999.90;;;10.00;99.90;;;;;;5064245;28;20523;-70
2022/05/29 01:37:18;;;;;;;1999.90;999.90;;;9.90;99.90;;;;;;5067043;28;20473;-70
2022/05/29 01:39:53;;;;;;;1999.90;999.90;;;9.90;99.90;;;;;;5066082;28;21016;-69
2022/05/29 01:42:26;;;;;;;1999.90;999.90;;;10.00;99.90;;;;;;5067438;28;20457;-68
2022/05/29 01:45:00;;;;;;;1999.90;999.90;;;10.00;99.90;;;;;;5066818;28;20508;-70
2022/05/29 01:47:33;;;;;;;1999.90;999.90;;;10.00;99.90;;;;;;5066133;28;20450;-70
2022/05/29 01:50:03;;;;;;;1999.90;999.90;;;10.10;99.90;;;;;;5067335;28;20477;-70
2022/05/29 01:52:36;;;;;;;1999.90;999.90;;;10.00;99.90;;;;;;5067884;28;20470;-70
2022/05/29 01:55:07;;;;;;;1999.90;999.90;;;10.00;99.90;;;;;;5066749;28;20527;-70
2022/05/29 01:57:37;;;;;;;1999.90;999.90;;;9.90;99.90;;;;;;5066443;28;20473;-68
2022/05/29 02:00:10;;;;;;;1999.90;999.90;;;10.00;99.90;;;;;;5067475;28;20984;-70
2022/05/29 02:02:39;;;;;;;1999.90;999.90;;;10.00;99.90;;;;;;5066723;28;20465;-70
2022/05/29 02:05:10;;;;;;;1999.90;999.90;;;10.00;99.90;;;;;;5066240;28;20968;-70
2022/05/29 02:07:48;;;;;;;1999.90;999.90;;;10.00;99.90;;;;;;5067354;28;21063;-70
2022/05/29 02:10:22;;;;;;;1999.90;999.90;;;10.10;99.90;;;;;;5066552;28;20526;-70
2022/05/29 02:12:54;;;;;;;1999.90;999.90;;;10.00;99.90;;;;;;5062958;28;20467;-69
2022/05/29 02:15:28;;;;;;;1999.90;999.90;;;10.00;99.90;;;;;;5067272;28;21181;-70
2022/05/29 02:17:58;;;;;;;1999.90;999.90;;;10.00;99.90;;;;;;5066343;28;20489;-70
2022/05/29 02:20:28;;;;;;;1999.90;999.90;;;10.00;99.90;;;;;;5067078;28;20946;-70
2022/05/29 02:23:01;;;;;;;1999.90;999.90;;;10.00;99.90;;;;;;5066167;28;20457;-70
2022/05/29 02:25:30;;;;;;;1999.90;999.90;;;10.00;99.90;;;;;;5061725;28;21034;-70
2022/05/29 02:28:01;;;;;;;1999.90;999.90;;;10.10;99.90;;;;;;5066843;28;20460;-70
2022/05/29 02:30:39;;;;;;;1999.90;999.90;;;10.20;99.90;;;;;;5067955;28;20477;-70
2022/05/29 02:33:11;;;;;;;1999.90;999.90;;;10.30;99.90;;;;;;5066491;28;20498;-70
2022/05/29 02:35:43;;;;;;;1999.90;999.90;;;10.30;99.90;;;;;;5068661;28;21073;-70
2022/05/29 02:38:18;;;;;;;1999.90;999.90;;;10.20;99.90;;;;;;5067024;28;20454;-70
2022/05/29 02:40:51;;;;;;;1999.90;999.90;;;10.40;99.90;;;;;;5066725;28;20484;-69
2022/05/29 02:43:22;;;;;;;1999.90;999.90;;;10.30;99.90;;;;;;5066368;28;20515;-70
2022/05/29 02:45:56;;;;;;;1999.90;999.90;;;10.20;99.90;;;;;;5068956;28;20514;-70
2022/05/29 02:48:31;;;;;;;1999.90;999.90;;;10.30;99.90;;;;;;5068692;28;20452;-70
2022/05/29 02:51:03;;;;;;;1999.90;999.90;;;10.30;99.90;;;;;;5070943;28;20534;-70
2022/05/29 02:53:33;;;;;;;1999.90;999.90;;;10.30;99.90;;;;;;5070287;28;20461;-70
2022/05/29 02:56:00;;;;;;;1999.90;999.90;;;10.30;99.90;;;;;;5069558;28;20481;-70
2022/05/29 02:58:30;;;;;;;1999.90;999.90;;;10.30;99.90;;;;;;5069057;28;21006;-70
2022/05/29 03:01:13;;;;;;;1999.90;999.90;;;10.20;99.90;;;;;;5069140;28;20563;-70
2022/05/29 03:03:48;;;;;;;1999.90;999.90;;;10.30;99.90;;;;;;5068129;28;21003;-69
2022/05/29 03:06:30;;;;;;;1999.90;999.90;;;10.30;99.90;;;;;;5070491;28;20456;-70
2022/05/29 03:09:07;;;;;;;1999.90;999.90;;;10.20;99.90;;;;;;5067970;28;20961;-70
2022/05/29 03:11:39;;;;;;;1999.90;999.90;;;10.20;99.90;;;;;;5069482;28;20472;-69
2022/05/29 03:14:11;;;;;;;1999.90;999.90;;;10.30;99.90;;;;;;5068975;28;20466;-70
2022/05/29 03:16:46;;;;;;;1999.90;999.90;;;10.30;99.90;;;;;;5070472;28;20473;-69
2022/05/29 03:19:22;;;;;;;1999.90;999.90;;;10.30;99.90;;;;;;5069586;28;20484;-70
2022/05/29 03:21:57;;;;;;;1999.90;999.90;;;10.40;99.90;;;;;;5070945;28;20526;-69
2022/05/29 03:24:32;;;;;;;1999.90;999.90;;;10.30;99.90;;;;;;5070074;28;20492;-70
2022/05/29 03:27:03;;;;;;;1999.90;999.90;;;10.30;99.90;;;;;;5068433;28;21148;-70
2022/05/29 03:29:36;;;;;;;1999.90;999.90;;;10.30;99.90;;;;;;5066907;28;20993;-69
2022/05/29 03:32:05;;;;;;;1999.90;999.90;;;10.30;99.90;;;;;;5067489;28;20567;-70
2022/05/29 03:34:32;;;;;;;1999.90;999.90;;;10.30;99.90;;;;;;5069925;28;20498;-70
2022/05/29 03:36:58;;;;;;;1999.90;999.90;;;10.40;99.90;;;;;;5068699;28;20502;-70
2022/05/29 03:39:25;;;;;;;1999.90;999.90;;;10.40;99.90;;;;;;5068517;28;20992;-70
2022/05/29 03:41:53;;;;;;;1999.90;999.90;;;10.50;99.90;;;;;;5068931;28;21815;-70
2022/05/29 03:44:22;;;;;;;1999.90;999.90;;;10.40;99.90;;;;;;5069835;28;20515;-70
2022/05/29 03:46:48;;;;;;;1999.90;999.90;;;10.40;99.90;;;;;;5070416;28;21168;-70
2022/05/29 03:49:18;;;;;;;1999.90;999.90;;;10.50;99.90;;;;;;5070073;28;20480;-70
2022/05/29 03:51:45;;;;;;;1999.90;999.90;;;10.40;99.90;;;;;;5071540;28;20515;-70
2022/05/29 03:54:12;;;;;;;1999.90;999.90;;;10.20;99.90;;;;;;5065862;28;20465;-70
2022/05/29 03:56:39;;;;;;;1999.90;999.90;;;10.20;99.90;;;;;;5069221;28;20530;-70
2022/05/29 03:59:06;;;;;;;1999.90;999.90;;;10.40;99.90;;;;;;5068918;28;20553;-70
2022/05/29 04:01:34;;;;;;;1999.90;999.90;;;10.40;99.90;;;;;;5069012;28;20457;-68
2022/05/29 04:04:01;;;;;;;1999.90;999.90;;;10.40;99.90;;;;;;5069184;28;20519;-70
2022/05/29 04:06:34;;;;;;;1999.90;999.90;;;10.50;99.90;;;;;;5072016;28;20445;-70
2022/05/29 04:12:05;;;;;;;1999.90;999.90;;;10.40;99.90;;;;;;5066904;28;20988;-70
2022/05/29 04:14:32;;;;;;;1999.90;999.90;;;10.30;99.90;;;;;;5068778;28;20822;-70
2022/05/29 04:16:59;;;;;;;1999.90;999.90;;;10.30;99.90;;;;;;5068779;28;20489;-70
2022/05/29 04:19:25;;;;;;;1999.90;999.90;;;10.30;99.90;;;;;;5072141;28;20481;-70
2022/05/29 04:21:53;;;;;;;1999.90;999.90;;;10.30;99.90;;;;;;5071595;28;20519;-69
2022/05/29 04:24:21;;;;;;;1999.90;999.90;;;10.30;99.90;;;;;;5070099;28;20516;-70
2022/05/29 04:26:48;;;;;;;1999.90;999.90;;;10.30;99.90;;;;;;5072859;28;20457;-70
2022/05/29 04:29:15;;;;;;;1999.90;999.90;;;10.20;99.90;;;;;;5069572;28;20480;-69
2022/05/29 04:32:59;;;;;;;1999.90;999.90;;;10.20;99.90;;;;;;5071014;28;21114;-70
2022/05/29 04:34:29;;;;;;;1999.90;999.90;;;10.30;99.90;;;;;;5070281;28;20456;-70
2022/05/29 04:36:57;;;;;;;1999.90;999.90;;;10.30;99.90;;;;;;5069813;28;20485;-68
2022/05/29 04:39:23;;;;;;;1999.90;999.90;;;10.40;99.90;;;;;;5069731;28;20356;-70
2022/05/29 04:41:50;;;;;;;1999.90;999.90;;;10.50;99.90;;;;;;5079215;22;20502;-70
2022/05/29 04:44:17;;;;;;;1999.90;999.90;;;10.70;99.90;;;;;;5052851;28;20528;-73
2022/05/29 04:46:44;;;;;;;1999.90;999.90;;;10.70;99.90;;;;;;5050986;28;20458;-69
2022/05/29 04:49:11;;;;;;;1999.90;999.90;;;10.80;99.90;;;;;;5043557;28;20459;-69
2022/05/29 04:51:37;;;;;;;1999.90;999.90;;;10.90;99.90;;;;;;5050383;28;20478;-68
2022/05/29 04:54:06;;;;;;;1999.90;999.90;;;10.80;99.90;;;;;;5046887;28;20470;-70
2022/05/29 04:56:33;;;;;;;1999.90;999.90;;;10.80;99.90;;;;;;5047948;28;20501;-70
2022/05/29 04:58:59;;;;;;;1999.90;999.90;;;10.90;99.90;;;;;;5050405;28;20481;-73
2022/05/29 05:01:26;;;;;;;1999.90;999.90;;;10.80;99.90;;;;;;5048838;28;20543;-70
2022/05/29 05:03:52;;;;;;;1999.90;999.90;;;10.80;99.90;;;;;;5050647;28;20905;-68
2022/05/29 05:06:19;;;;;;;1999.90;999.90;;;10.80;99.90;;;;;;5052326;28;20563;-69
2022/05/29 05:08:46;;;;;;;1999.90;999.90;;;10.80;99.90;;;;;;5049886;28;20462;-70
2022/05/29 05:11:14;;;;;;;1999.90;999.90;;;11.00;99.90;;;;;;5044737;28;20563;-70
2022/05/29 05:13:40;;;;;;;1999.90;999.90;;;11.10;99.90;;;;;;5045513;28;20524;-70
2022/05/29 05:16:07;;;;;;;1999.90;999.90;;;11.10;99.90;;;;;;5049409;28;20899;-69
2022/05/29 05:18:34;;;;;;;1999.90;999.90;;;11.10;99.90;;;;;;5046154;28;20458;-67
2022/05/29 05:21:05;;;;;;;1999.90;999.90;;;11.30;99.90;;;;;;5052940;28;20522;-68
2022/05/29 05:23:32;;;;;;;1999.90;999.90;;;11.10;99.90;;;;;;5052071;28;20438;-69
2022/05/29 05:25:59;;;;;;;1999.90;999.90;;;11.10;99.90;;;;;;5052719;28;20438;-68
2022/05/29 05:28:28;;;;;;;1999.90;999.90;;;11.00;99.90;;;;;;5052405;28;20450;-73
2022/05/29 05:30:55;;;;;;;1999.90;999.90;;;11.00;99.90;;;;;;5052892;28;20474;-69
2022/05/29 05:33:22;;;;;;;1999.90;999.90;;;11.20;99.90;;;;;;5053348;28;20451;-69
2022/05/29 05:35:48;;;;;;;1999.90;999.90;;;11.00;99.90;;;;;;5054671;28;20446;-69
2022/05/29 05:38:15;;;;;;;1999.90;999.90;;;11.00;99.90;;;;;;5053533;28;20539;-72
2022/05/29 05:40:41;;;;;;;1999.90;999.90;;;11.00;99.90;;;;;;5053222;28;20851;-72
2022/05/29 05:43:09;;;;;;;1999.90;999.90;;;11.10;99.90;;;;;;5052438;28;20451;-70
2022/05/29 05:45:40;;;;;;;1999.90;999.90;;;11.30;99.90;;;;;;5053078;28;20451;-71
2022/05/29 05:48:07;;;;;;;1999.90;999.90;;;11.40;99.90;;;;;;5052845;28;20488;-70
2022/05/29 05:50:34;;;;;;;1999.90;999.90;;;11.50;99.90;;;;;;5052811;28;20470;-68
2022/05/29 05:53:01;;;;;;;1999.90;999.90;;;11.30;99.90;;;;;;5053456;28;20446;-69
2022/05/29 05:55:28;;;;;;;1999.90;999.90;;;11.30;99.90;;;;;;5053503;28;20442;-71
2022/05/29 05:57:54;;;;;;;1999.90;999.90;;;11.50;99.90;;;;;;5052944;28;20559;-71
2022/05/29 06:00:23;;;;;;;1999.90;999.90;;;11.60;99.90;;;;;;5052581;28;20878;-70
2022/05/29 06:02:51;;;;;;;1999.90;999.90;;;11.60;99.90;;;;;;5052556;28;20516;-70
2022/05/29 06:05:17;;;;;;;1999.90;999.90;;;11.70;99.90;;;;;;5053287;28;20460;-70
2022/05/29 06:07:44;;;;;;;1999.90;999.90;;;11.70;99.90;;;;;;5052463;28;20446;-70
2022/05/29 06:10:12;;;;;;;1999.90;999.90;;;12.00;99.90;;;;;;5052778;28;20466;-71
2022/05/29 06:12:38;;;;;;;1999.90;999.90;;;12.10;99.90;;;;;;5051868;28;20450;-71
2022/05/29 06:15:06;;;;;;;1999.90;999.90;;;12.10;99.90;;;;;;5052372;28;20473;-71
2022/05/29 06:17:33;;;;;;;1999.90;999.90;;;12.10;99.90;;;;;;5052459;28;20486;-70
2022/05/29 06:20:01;;;;;;;1999.90;999.90;;;12.30;99.90;;;;;;5053860;28;20457;-71
2022/05/29 06:22:28;;;;;;;1999.90;999.90;;;12.30;99.90;;;;;;5056760;28;20453;-70
2022/05/29 06:24:55;;;;;;;1999.90;999.90;;;12.20;99.90;;;;;;5056332;28;20454;-71
2022/05/29 06:27:21;;;;;;;1999.90;999.90;;;12.10;99.90;;;;;;5056902;28;20442;-71
2022/05/29 06:29:48;;;;;;;1999.90;999.90;;;12.20;99.90;;;;;;5056814;28;20446;-71
2022/05/29 06:32:16;;;;;;;1999.90;999.90;;;12.20;99.90;;;;;;5056784;28;20456;-71
2022/05/29 06:34:43;;;;;;;1999.90;999.90;;;12.40;99.90;;;;;;5056457;28;20492;-70
2022/05/29 06:37:11;;;;;;;1999.90;999.90;;;12.30;99.90;;;;;;5055754;28;20500;-70
2022/05/29 06:39:39;;;;;;;1999.90;999.90;;;12.60;99.90;;;;;;5054309;28;20540;-72
2022/05/29 06:42:06;;;;;;;1999.90;999.90;;;12.90;99.90;;;;;;5036695;28;20529;-68
2022/05/29 06:44:33;;;;;;;1999.90;999.90;;;13.10;99.90;;;;;;5037543;28;20876;-69
2022/05/29 06:47:03;;;;;;;1999.90;999.90;;;12.90;99.90;;;;;;5037234;28;20990;-71
2022/05/29 06:49:30;;;;;;;1999.90;999.90;;;12.90;99.90;;;;;;5048363;28;20445;-68
2022/05/29 06:51:57;;;;;;;1999.90;999.90;;;13.00;99.90;;;;;;5056619;28;21006;-71
2022/05/29 06:54:25;;;;;;;1999.90;999.90;;;12.80;99.90;;;;;;5057519;28;20472;-70
2022/05/29 06:56:52;;;;;;;1999.90;999.90;;;12.70;99.90;;;;;;5056756;28;20847;-69
2022/05/29 06:59:20;;;;;;;1999.90;999.90;;;12.80;99.90;;;;;;5056684;28;20446;-71
2022/05/29 07:07:17;;;;;;;1999.90;999.90;;;13.00;99.90;;;;;;5055335;28;20410;-68
2022/05/29 07:09:46;;;;;;;1999.90;999.90;;;13.00;99.90;;;;;;5056484;28;20438;-70
2022/05/29 07:12:17;;;;;;;1999.90;999.90;;;13.00;99.90;;;;;;5056871;28;20523;-70
2022/05/29 07:14:47;;;;;;;1999.90;999.90;;;12.90;99.90;;;;;;5056748;28;20450;-69
2022/05/29 07:17:14;;;;;;;1999.90;999.90;;;12.80;99.90;;;;;;5057284;28;21009;-70
2022/05/29 07:19:42;;;;;;;1999.90;999.90;;;12.70;99.90;;;;;;5057214;28;20445;-69
2022/05/29 07:22:11;;;;;;;1999.90;999.90;;;12.70;99.90;;;;;;5057190;28;20466;-69
2022/05/29 07:24:38;;;;;;;1999.90;999.90;;;12.70;99.90;;;;;;5056554;28;20490;-70
2022/05/29 07:27:07;;;;;;;1999.90;999.90;;;12.70;99.90;;;;;;5056754;28;20939;-70
2022/05/29 07:29:35;;;;;;;1999.90;999.90;;;12.80;99.90;;;;;;5056620;28;20454;-70
2022/05/29 07:32:01;;;;;;;1999.90;999.90;;;13.10;99.90;;;;;;5054761;28;20470;-70
2022/05/29 07:34:28;;;;;;;1999.90;999.90;;;13.30;99.90;;;;;;5056396;28;20509;-67
2022/05/29 07:37:02;;;;;;;1999.90;999.90;;;13.40;99.90;;;;;;5056289;28;20477;-71
2022/05/29 07:39:29;;;;;;;1999.90;999.90;;;13.50;99.90;;;;;;5055438;28;20445;-69
2022/05/29 07:44:41;;;;;;;1999.90;999.90;;;13.30;99.90;;;;;;5055071;28;20418;-71
2022/05/29 07:47:08;;;;;;;1999.90;999.90;;;13.50;99.90;;;;;;5055195;28;20490;-72
2022/05/29 07:49:34;;;;;;;1999.90;999.90;;;13.70;99.90;;;;;;5054880;28;20454;-72
2022/05/29 07:52:01;;;;;;;1999.90;999.90;;;13.90;99.90;;;;;;5054947;28;20462;-70
2022/05/29 07:54:28;;;;;;;1999.90;999.90;;;13.80;99.90;;;;;;5055565;28;20452;-68
2022/05/29 07:56:54;;;;;;;1999.90;999.90;;;13.70;99.90;;;;;;5057718;28;20481;-69
2022/05/29 07:59:22;;;;;;;1999.90;999.90;;;13.50;99.90;;;;;;5057770;28;20446;-69
2022/05/29 08:01:50;;;;;;;1999.90;999.90;;;13.30;99.90;;;;;;5060256;28;20540;-69
2022/05/29 08:04:17;;;;;;;1999.90;999.90;;;13.30;99.90;;;;;;5055932;28;20500;-69
2022/05/29 08:06:43;;;;;;;1999.90;999.90;;;13.40;99.90;;;;;;5056340;28;20477;-69
2022/05/29 08:09:10;;;;;;;1999.90;999.90;;;13.40;99.90;;;;;;5056181;28;20500;-74
2022/05/29 08:11:37;;;;;;;1999.90;999.90;;;13.50;99.90;;;;;;5054969;28;20874;-70
2022/05/29 08:14:04;;;;;;;1999.90;999.90;;;13.60;99.90;;;;;;5054691;28;20500;-71
2022/05/29 08:16:31;;;;;;;1999.90;999.90;;;13.90;99.90;;;;;;5055162;28;20568;-70
2022/05/29 08:18:59;;;;;;;1999.90;999.90;;;14.00;99.90;;;;;;5055644;28;20544;-70
2022/05/29 08:21:25;;;;;;;1999.90;999.90;;;13.90;99.90;;;;;;5055039;28;21108;-71
2022/05/29 08:32:05;;;;;;;1999.90;999.90;;;14.30;99.90;;;;;;5034577;28;21025;-72
2022/05/29 08:34:33;;;;;;;1999.90;999.90;;;14.60;99.90;;;;;;5034540;28;20447;-71
2022/05/29 08:37:00;;;;;;;1999.90;999.90;;;14.60;99.90;;;;;;5040105;28;20446;-72
2022/05/29 08:39:26;;;;;;;1999.90;999.90;;;14.70;99.90;;;;;;5054439;28;20539;-71
2022/05/29 08:41:54;;;;;;;1999.90;999.90;;;14.90;99.90;;;;;;5053979;28;20897;-71
2022/05/29 08:44:25;;;;;;;1999.90;999.90;;;15.00;99.90;;;;;;5054517;28;20975;-70
2022/05/29 08:47:00;;;;;;;1999.90;999.90;;;14.80;99.90;;;;;;5054722;28;20441;-72
2022/05/29 08:49:29;;;;;;;1999.90;999.90;;;15.00;99.90;;;;;;5053834;28;20474;-72
2022/05/29 08:52:08;;;;;;;1999.90;999.90;;;15.20;99.90;;;;;;5053594;28;20482;-71
2022/05/29 08:54:45;;;;;;;1999.90;999.90;;;15.10;99.90;;;;;;5054309;28;20852;-70
2022/05/29 08:57:21;;;;;;;1999.90;999.90;;;14.90;99.90;;;;;;5053911;28;20490;-70
2022/05/29 08:59:51;;;;;;;1999.90;999.90;;;15.00;99.90;;;;;;5053786;28;21005;-70
2022/05/29 09:02:30;;;;;;;1999.90;999.90;;;15.00;99.90;;;;;;5052654;28;20473;-69
2022/05/29 09:05:03;;;;;;;1999.90;999.90;;;14.70;99.90;;;;;;5054053;28;20430;-70
2022/05/29 09:07:33;;;;;;;1999.90;999.90;;;14.80;99.90;;;;;;5053353;28;20962;-69
2022/05/29 09:10:05;;;;;;;1999.90;999.90;;;15.00;99.90;;;;;;5052578;28;20900;-68
2022/05/29 09:12:37;;;;;;;1999.90;999.90;;;14.90;99.90;;;;;;5046449;28;20500;-71
2022/05/29 09:15:10;;;;;;;1999.90;999.90;;;14.60;99.90;;;;;;5048624;28;21053;-71
2022/05/29 09:17:42;;;;;;;1999.90;999.90;;;14.60;99.90;;;;;;5050166;28;20478;-70
2022/05/29 09:20:24;;;;;;;1999.90;999.90;;;14.60;99.90;;;;;;5049503;28;20519;-70
2022/05/29 09:22:52;;;;;;;1999.90;999.90;;;14.60;99.90;;;;;;5049688;28;20466;-70
2022/05/29 09:25:29;;;;;;;1999.90;999.90;;;14.90;99.90;;;;;;5049344;28;20470;-65
2022/05/29 09:27:55;;;;;;;1999.90;999.90;;;14.90;99.90;;;;;;5045666;28;20508;-71
2022/05/29 09:30:22;;;;;;;1999.90;999.90;;;15.20;99.90;;;;;;5049122;28;20486;-70
2022/05/29 09:32:51;;;;;;;1999.90;999.90;;;15.70;99.90;;;;;;5043605;28;20456;-71
2022/05/29 09:35:25;;;;;;;1999.90;999.90;;;15.80;99.90;;;;;;5045732;28;20508;-70
2022/05/29 09:38:00;;;;;;;1999.90;999.90;;;16.10;99.90;;;;;;5039550;28;20564;-71
2022/05/29 09:40:31;;;;;;;1999.90;999.90;;;16.10;99.90;;;;;;5050949;28;20543;-69
2022/05/29 09:43:12;;;;;;;1999.90;999.90;;;15.80;99.90;;;;;;5049884;28;20962;-69
2022/05/29 09:45:39;;;;;;;1999.90;999.90;;;15.50;99.90;;;;;;5044735;28;20458;-70
2022/05/29 09:51:15;;;;;;;1999.90;999.90;;;15.00;99.90;;;;;;5043352;28;20598;-70
2022/05/29 09:53:50;;;;;;;1999.90;999.90;;;14.50;99.90;;;;;;5052656;28;20466;-70
2022/05/29 09:56:27;;;;;;;1999.90;999.90;;;14.40;99.90;;;;;;5051850;28;20469;-71
2022/05/29 09:58:57;;;;;;;1999.90;999.90;;;14.20;99.90;;;;;;5052790;28;20993;-67
2022/05/29 10:01:29;;;;;;;1999.90;999.90;;;14.10;99.90;;;;;;5050726;28;20478;-70
2022/05/29 10:03:58;;;;;;;1999.90;999.90;;;13.80;99.90;;;;;;5049115;28;20466;-70
2022/05/29 10:06:30;;;;;;;1999.90;999.90;;;13.60;99.90;;;;;;5051451;28;20470;-69
2022/05/29 10:09:14;;;;;;;1999.90;999.90;;;13.80;99.90;;;;;;5050431;28;20462;-66
2022/05/29 10:11:43;;;;;;;1999.90;999.90;;;13.90;99.90;;;;;;5050235;28;20493;-64
2022/05/29 10:14:27;;;;;;;1999.90;999.90;;;14.00;99.90;;;;;;5049247;28;20465;-67
2022/05/29 10:16:55;;;;;;;1999.90;999.90;;;14.40;99.90;;;;;;5047319;28;20473;-69
2022/05/29 10:19:34;;;;;;;1999.90;999.90;;;14.60;99.90;;;;;;5045395;28;21006;-69
2022/05/29 10:22:03;;;;;;;1999.90;999.90;;;14.50;99.90;;;;;;5047266;28;20468;-70
2022/05/29 10:24:37;;;;;;;1999.90;999.90;;;14.90;99.90;;;;;;5052128;28;20512;-70
2022/05/29 10:27:07;;;;;;;1999.90;999.90;;;15.20;99.90;;;;;;5048973;28;20486;-70
2022/05/29 10:29:37;;;;;;;1999.90;999.90;;;15.40;99.90;;;;;;5049784;28;20462;-71
2022/05/29 10:32:07;;;;;;;1999.90;999.90;;;15.50;99.90;;;;;;5047806;28;20854;-69
2022/05/29 10:34:36;;;;;;;1999.90;999.90;;;15.40;99.90;;;;;;5044131;28;20462;-70
2022/05/29 10:37:25;;;;;;;1999.90;999.90;;;14.60;99.90;;;;;;5046088;28;20459;-70
2022/05/29 10:40:10;;;;;;;1999.90;999.90;;;14.30;99.90;;;;;;5045459;28;20469;-67
2022/05/29 10:42:43;;;;;;;1999.90;999.90;;;14.20;99.90;;;;;;5092271;22;20509;-66
2022/05/29 10:45:18;;;;;;;1999.90;999.90;;;14.70;99.90;;;;;;5077315;28;20978;-67
2022/05/29 10:47:57;;;;;;;1999.90;999.90;;;15.00;99.90;;;;;;5077361;28;20462;-66
2022/05/29 10:50:31;;;;;;;1999.90;999.90;;;15.00;99.90;;;;;;5077322;28;20452;-68
2022/05/29 10:53:07;;;;;;;1999.90;999.90;;;15.40;99.90;;;;;;5082319;28;20480;-66
2022/05/29 10:55:46;;;;;;;1999.90;999.90;;;15.60;99.90;;;;;;5084931;28;20471;-67
2022/05/29 10:58:39;;;;;;;1999.90;999.90;;;15.80;99.90;;;;;;5082397;28;20520;-66
2022/05/29 11:04:17;;;;;;;1999.90;999.90;;;16.00;99.90;;;;;;5082850;28;21062;-67
2022/05/29 11:07:04;;;;;;;1999.90;999.90;;;16.10;99.90;;;;;;5086418;28;20460;-66
2022/05/29 11:09:53;;;;;;;1999.90;999.90;;;15.90;99.90;;;;;;5088687;28;20460;-66
2022/05/29 11:12:34;;;;;;;1999.90;999.90;;;15.60;99.90;;;;;;5087545;28;20472;-67
2022/05/29 11:15:09;;;;;;;1999.90;999.90;;;15.70;99.90;;;;;;5088273;28;20479;-66
2022/05/29 11:17:48;;;;;;;1999.90;999.90;;;15.50;99.90;;;;;;5087739;28;20499;-66
2022/05/29 11:20:30;;;;;;;1999.90;999.90;;;15.60;99.90;;;;;;5088230;28;20968;-68
2022/05/29 11:23:17;;;;;;;1999.90;999.90;;;16.10;99.90;;;;;;5090495;28;20561;-69
2022/05/29 11:25:50;;;;;;;1999.90;999.90;;;16.70;99.90;;;;;;5087314;28;20460;-67
2022/05/29 11:28:54;;;;;;;1999.90;999.90;;;17.00;99.90;;;;;;5090455;28;20937;-67
2022/05/29 11:31:46;;;;;;;1999.90;999.90;;;16.80;99.80;;;;;;5091049;28;20480;-69
2022/05/29 11:34:29;;;;;;;1999.90;999.90;;;17.10;99.90;;;;;;5089170;28;20675;-68
2022/05/29 11:37:23;;;;;;;1999.90;999.90;;;16.00;99.90;;;;;;5090040;28;20866;-68
2022/05/29 11:39:53;;;;;;;1999.90;999.90;;;16.20;99.90;;;;;;5088995;28;20589;-68
2022/05/29 11:42:26;;;;;;;1999.90;999.90;;;16.30;99.90;;;;;;5086423;28;20492;-67
2022/05/29 11:45:01;;;;;;;1999.90;999.90;;;16.40;99.90;;;;;;5089048;28;20980;-69
2022/05/29 11:53:16;;;;;;;1999.90;999.90;;;16.50;99.90;;;;;;5088845;28;20573;-68
2022/05/29 11:55:45;;;;;;;1999.90;999.90;;;17.00;98.90;;;;;;5085181;28;20468;-68
2022/05/29 11:58:17;;;;;;;1999.90;999.90;;;17.20;99.80;;;;;;5088445;28;20476;-68
2022/05/29 12:00:51;;;;;;;1999.90;999.90;;;17.30;99.50;;;;;;5089706;28;20464;-67
2022/05/29 12:03:26;;;;;;;1999.90;999.90;;;17.50;98.80;;;;;;5088060;28;20464;-66
2022/05/29 12:06:00;;;;;;;1999.90;999.90;;;17.90;98.60;;;;;;5088996;28;20456;-68
2022/05/29 12:08:34;;;;;;;1999.90;999.90;;;17.80;97.80;;;;;;5087559;28;20457;-68
2022/05/29 12:11:07;;;;;;;1999.90;999.90;;;17.50;98.60;;;;;;5089503;28;20491;-68
2022/05/29 12:13:39;;;;;;;1999.90;999.90;;;17.50;99.10;;;;;;5088612;28;20499;-69
2022/05/29 12:16:12;;;;;;;1999.90;999.90;;;17.40;99.50;;;;;;5072595;28;20445;-68
2022/05/29 12:18:45;;;;;;;1999.90;999.90;;;17.20;98.60;;;;;;5072841;28;21032;-69
2022/05/29 12:21:15;;;;;;;1999.90;999.90;;;16.80;98.80;;;;;;5085773;28;20469;-70
2022/05/29 12:23:45;;;;;;;1999.90;999.90;;;16.40;99.70;;;;;;5093528;28;20428;-68
2022/05/29 12:26:19;;;;;;;1999.90;999.90;;;16.20;99.90;;;;;;5092855;28;20848;-69
2022/05/29 12:28:50;;;;;;;1999.90;999.90;;;15.80;99.90;;;;;;5093614;28;20433;-69
2022/05/29 12:31:23;;;;;;;1999.90;999.90;;;15.70;99.90;;;;;;5093052;28;20495;-69
2022/05/29 12:33:50;;;;;;;1999.90;999.90;;;15.90;99.90;;;;;;5092811;28;20886;-69
2022/05/29 12:36:33;;;;;;;1999.90;999.90;;;16.00;99.90;;;;;;5093404;28;20499;-68
2022/05/29 12:39:11;;;;;;;1999.90;999.90;;;16.30;99.90;;;;;;5092944;28;20472;-69
2022/05/29 12:42:03;;;;;;;1999.90;999.90;;;16.30;99.80;;;;;;5092711;28;20484;-69
2022/05/29 12:44:49;;;;;;;1999.90;999.90;;;16.10;99.90;;;;;;5092870;28;20437;-69
2022/05/29 12:47:41;;;;;;;1999.90;999.90;;;16.20;99.90;;;;;;5093113;28;20444;-68
2022/05/29 12:50:18;;;;;;;1999.90;999.90;;;16.20;99.90;;;;;;5093060;28;20477;-68